sensor_id;sensor_type;location;lat;lon;timestamp;pressure;altitude;pressure_sealevel;temperature
68446;BMP280;35789;48.414;12.768;2022-11-27T00:00:00;98370.0;;;
68446;BMP280;35789;48.414;12.768;2022-11-27T00:05:00;98370.0;;;
68446;BMP280;35789;48.414;12.768;2022-11-27T00:10:00;98370.0;;;
68446;BMP280;35789;48.414;12.768;2022-11-27T00:15:01;98360.0;;;
68446;BMP280;35789;48.414;12.768;2022-11-27T00:20:00;98350.0;;;
68446;BMP280;35789;48.414;12.768;2022-11-27T00:25:00;98360.0;;;
68446;BMP280;35789;48.414;12.768;2022-11-27T00:30:00;98360.0;;;
68446;BMP280;35789;48.414;12.768;2022-11-27T00:35:00;98360.0;;;
68446;BMP280;35789;48.414;12.768;2022-11-27T00:40:00;98360.0;;;
68446;BMP280;35789;48.414;12.768;2022-11-27T00:45:00;98350.0;;;
68446;BMP280;35789;48.414;12.768;2022-11-27T00:50:00;98350.0;;;
68446;BMP280;35789;48.414;12.768;2022-11-27T00:55:00;98340.0;;;
68446;BMP280;35789;48.414;12.768;2022-11-27T01:00:00;98340.0;;;
68446;BMP280;35789;48.414;12.768;2022-11-27T01:05:00;98330.0;;;
68446;BMP280;35789;48.414;12.768;2022-11-27T01:10:00;98330.0;;;
68446;BMP280;35789;48.414;12.768;2022-11-27T01:15:00;98320.0;;;
68446;BMP280;35789;48.414;12.768;2022-11-27T01:20:00;98330.0;;;
68446;BMP280;35789;48.414;12.768;2022-11-27T01:25:00;98320.0;;;
68446;BMP280;35789;48.414;12.768;2022-11-27T01:30:00;98320.0;;;
68446;BMP280;35789;48.414;12.768;2022-11-27T01:35:00;98320.0;;;
68446;BMP280;35789;48.414;12.768;2022-11-27T01:40:00;98320.0;;;
68446;BMP280;35789;48.414;12.768;2022-11-27T01:45:00;98310.0;;;
68446;BMP280;35789;48.414;12.768;2022-11-27T01:50:15;98300.0;;;
68446;BMP280;35789;48.414;12.768;2022-11-27T01:55:05;98300.0;;;
68446;BMP280;35789;48.414;12.768;2022-11-27T02:00:05;98300.0;;;
68446;BMP280;35789;48.414;12.768;2022-11-27T02:05:00;98300.0;;;
68446;BMP280;35789;48.414;12.768;2022-11-27T02:10:01;98300.0;;;
68446;BMP280;35789;48.414;12.768;2022-11-27T02:15:10;98300.0;;;
68446;BMP280;35789;48.414;12.768;2022-11-27T02:20:21;98300.0;;;
68446;BMP280;35789;48.414;12.768;2022-11-27T02:25:11;98290.0;;;
68446;BMP280;35789;48.414;12.768;2022-11-27T02:30:03;98300.0;;;
68446;BMP280;35789;48.414;12.768;2022-11-27T02:35:05;98300.0;;;
68446;BMP280;35789;48.414;12.768;2022-11-27T02:40:04;98310.0;;;
68446;BMP280;35789;48.414;12.768;2022-11-27T02:45:04;98300.0;;;
68446;BMP280;35789;48.414;12.768;2022-11-27T02:50:02;98310.0;;;
68446;BMP280;35789;48.414;12.768;2022-11-27T02:55:05;98300.0;;;
68446;BMP280;35789;48.414;12.768;2022-11-27T03:00:01;98300.0;;;
68446;BMP280;35789;48.414;12.768;2022-11-27T03:05:04;98280.0;;;
68446;BMP280;35789;48.414;12.768;2022-11-27T03:10:10;98270.0;;;
68446;BMP280;35789;48.414;12.768;2022-11-27T03:15:00;98270.0;;;
68446;BMP280;35789;48.414;12.768;2022-11-27T03:20:09;98250.0;;;
68446;BMP280;35789;48.414;12.768;2022-11-27T03:25:00;98230.0;;;
68446;BMP280;35789;48.414;12.768;2022-11-27T03:30:06;98230.0;;;
68446;BMP280;35789;48.414;12.768;2022-11-27T03:35:00;98230.0;;;
68446;BMP280;35789;48.414;12.768;2022-11-27T03:40:00;98230.0;;;
68446;BMP280;35789;48.414;12.768;2022-11-27T03:45:09;98240.0;;;
68446;BMP280;35789;48.414;12.768;2022-11-27T03:50:17;98240.0;;;
68446;BMP280;35789;48.414;12.768;2022-11-27T03:55:09;98240.0;;;
68446;BMP280;35789;48.414;12.768;2022-11-27T04:00:06;98230.0;;;
68446;BMP280;35789;48.414;12.768;2022-11-27T04:05:00;98230.0;;;
68446;BMP280;35789;48.414;12.768;2022-11-27T04:10:00;98230.0;;;
68446;BMP280;35789;48.414;12.768;2022-11-27T04:15:00;98230.0;;;
68446;BMP280;35789;48.414;12.768;2022-11-27T04:20:00;98220.0;;;
68446;BMP280;35789;48.414;12.768;2022-11-27T04:25:00;98230.0;;;
68446;BMP280;35789;48.414;12.768;2022-11-27T04:30:00;98220.0;;;
68446;BMP280;35789;48.414;12.768;2022-11-27T04:35:00;98220.0;;;
68446;BMP280;35789;48.414;12.768;2022-11-27T04:40:00;98210.0;;;
68446;BMP280;35789;48.414;12.768;2022-11-27T04:45:00;98220.0;;;
68446;BMP280;35789;48.414;12.768;2022-11-27T04:50:00;98220.0;;;
68446;BMP280;35789;48.414;12.768;2022-11-27T04:55:00;98230.0;;;
68446;BMP280;35789;48.414;12.768;2022-11-27T05:00:01;98220.0;;;
68446;BMP280;35789;48.414;12.768;2022-11-27T05:05:01;98220.0;;;
68446;BMP280;35789;48.414;12.768;2022-11-27T05:10:00;98220.0;;;
68446;BMP280;35789;48.414;12.768;2022-11-27T05:15:00;98210.0;;;
68446;BMP280;35789;48.414;12.768;2022-11-27T05:20:00;98210.0;;;
68446;BMP280;35789;48.414;12.768;2022-11-27T05:25:00;98220.0;;;
68446;BMP280;35789;48.414;12.768;2022-11-27T05:30:00;98220.0;;;
68446;BMP280;35789;48.414;12.768;2022-11-27T05:35:00;98220.0;;;
68446;BMP280;35789;48.414;12.768;2022-11-27T05:40:00;98220.0;;;
68446;BMP280;35789;48.414;12.768;2022-11-27T05:45:00;98220.0;;;
68446;BMP280;35789;48.414;12.768;2022-11-27T05:50:00;98220.0;;;
68446;BMP280;35789;48.414;12.768;2022-11-27T05:55:00;98200.0;;;
68446;BMP280;35789;48.414;12.768;2022-11-27T06:00:00;98190.0;;;
68446;BMP280;35789;48.414;12.768;2022-11-27T06:05:00;98180.0;;;
68446;BMP280;35789;48.414;12.768;2022-11-27T06:10:00;98180.0;;;
68446;BMP280;35789;48.414;12.768;2022-11-27T06:15:00;98190.0;;;
68446;BMP280;35789;48.414;12.768;2022-11-27T06:20:00;98180.0;;;
68446;BMP280;35789;48.414;12.768;2022-11-27T06:25:00;98190.0;;;
68446;BMP280;35789;48.414;12.768;2022-11-27T06:30:00;98190.0;;;
68446;BMP280;35789;48.414;12.768;2022-11-27T06:35:00;98170.0;;;
68446;BMP280;35789;48.414;12.768;2022-11-27T06:40:00;98180.0;;;
68446;BMP280;35789;48.414;12.768;2022-11-27T06:45:00;98180.0;;;
68446;BMP280;35789;48.414;12.768;2022-11-27T06:50:00;98170.0;;;
68446;BMP280;35789;48.414;12.768;2022-11-27T06:55:00;98170.0;;;
68446;BMP280;35789;48.414;12.768;2022-11-27T07:00:00;98180.0;;;
68446;BMP280;35789;48.414;12.768;2022-11-27T07:05:00;98170.0;;;
68446;BMP280;35789;48.414;12.768;2022-11-27T07:10:00;98160.0;;;
68446;BMP280;35789;48.414;12.768;2022-11-27T07:15:00;98150.0;;;
68446;BMP280;35789;48.414;12.768;2022-11-27T07:20:00;98150.0;;;
68446;BMP280;35789;48.414;12.768;2022-11-27T07:25:00;98150.0;;;
68446;BMP280;35789;48.414;12.768;2022-11-27T07:30:00;98160.0;;;
68446;BMP280;35789;48.414;12.768;2022-11-27T07:35:00;98170.0;;;
68446;BMP280;35789;48.414;12.768;2022-11-27T07:40:00;98170.0;;;
68446;BMP280;35789;48.414;12.768;2022-11-27T07:45:00;98170.0;;;
68446;BMP280;35789;48.414;12.768;2022-11-27T07:50:00;98190.0;;;
68446;BMP280;35789;48.414;12.768;2022-11-27T07:55:00;98180.0;;;
68446;BMP280;35789;48.414;12.768;2022-11-27T08:00:00;98180.0;;;
68446;BMP280;35789;48.414;12.768;2022-11-27T08:05:01;98170.0;;;
68446;BMP280;35789;48.414;12.768;2022-11-27T08:10:00;98160.0;;;
68446;BMP280;35789;48.414;12.768;2022-11-27T08:15:00;98160.0;;;
68446;BMP280;35789;48.414;12.768;2022-11-27T08:20:00;98160.0;;;
68446;BMP280;35789;48.414;12.768;2022-11-27T08:25:00;98160.0;;;
68446;BMP280;35789;48.414;12.768;2022-11-27T08:30:00;98150.0;;;
68446;BMP280;35789;48.414;12.768;2022-11-27T08:35:00;98140.0;;;
68446;BMP280;35789;48.414;12.768;2022-11-27T08:40:00;98150.0;;;
68446;BMP280;35789;48.414;12.768;2022-11-27T08:45:00;98140.0;;;
68446;BMP280;35789;48.414;12.768;2022-11-27T08:50:00;98140.0;;;
68446;BMP280;35789;48.414;12.768;2022-11-27T08:55:00;98140.0;;;
68446;BMP280;35789;48.414;12.768;2022-11-27T09:00:00;98140.0;;;
68446;BMP280;35789;48.414;12.768;2022-11-27T09:05:00;98120.0;;;
68446;BMP280;35789;48.414;12.768;2022-11-27T09:10:00;98130.0;;;
68446;BMP280;35789;48.414;12.768;2022-11-27T09:15:00;98120.0;;;
68446;BMP280;35789;48.414;12.768;2022-11-27T09:20:00;98110.0;;;
68446;BMP280;35789;48.414;12.768;2022-11-27T09:25:01;98110.0;;;
68446;BMP280;35789;48.414;12.768;2022-11-27T09:30:00;98110.0;;;
68446;BMP280;35789;48.414;12.768;2022-11-27T09:35:00;98090.0;;;
68446;BMP280;35789;48.414;12.768;2022-11-27T09:40:00;98080.0;;;
68446;BMP280;35789;48.414;12.768;2022-11-27T09:45:02;98070.0;;;
68446;BMP280;35789;48.414;12.768;2022-11-27T09:50:06;98070.0;;;
68446;BMP280;35789;48.414;12.768;2022-11-27T09:55:08;98060.0;;;
68446;BMP280;35789;48.414;12.768;2022-11-27T10:00:04;98050.0;;;
68446;BMP280;35789;48.414;12.768;2022-11-27T10:05:10;98050.0;;;
68446;BMP280;35789;48.414;12.768;2022-11-27T10:10:16;98040.0;;;
68446;BMP280;35789;48.414;12.768;2022-11-27T10:15:06;98020.0;;;
68446;BMP280;35789;48.414;12.768;2022-11-27T10:20:15;98010.0;;;
68446;BMP280;35789;48.414;12.768;2022-11-27T10:25:10;98010.0;;;
68446;BMP280;35789;48.414;12.768;2022-11-27T10:30:03;98010.0;;;
68446;BMP280;35789;48.414;12.768;2022-11-27T10:35:05;98000.0;;;
68446;BMP280;35789;48.414;12.768;2022-11-27T10:40:05;98010.0;;;
68446;BMP280;35789;48.414;12.768;2022-11-27T10:45:05;98000.0;;;
68446;BMP280;35789;48.414;12.768;2022-11-27T10:50:00;97990.0;;;
68446;BMP280;35789;48.414;12.768;2022-11-27T10:55:03;97980.0;;;
68446;BMP280;35789;48.414;12.768;2022-11-27T11:00:09;97980.0;;;
68446;BMP280;35789;48.414;12.768;2022-11-27T11:05:15;97960.0;;;
68446;BMP280;35789;48.414;12.768;2022-11-27T11:10:00;97960.0;;;
68446;BMP280;35789;48.414;12.768;2022-11-27T11:15:00;97950.0;;;
68446;BMP280;35789;48.414;12.768;2022-11-27T11:20:13;97940.0;;;
68446;BMP280;35789;48.414;12.768;2022-11-27T11:25:00;97930.0;;;
68446;BMP280;35789;48.414;12.768;2022-11-27T11:30:03;97930.0;;;
68446;BMP280;35789;48.414;12.768;2022-11-27T11:35:06;97940.0;;;
68446;BMP280;35789;48.414;12.768;2022-11-27T11:40:05;97940.0;;;
68446;BMP280;35789;48.414;12.768;2022-11-27T11:45:05;97950.0;;;
68446;BMP280;35789;48.414;12.768;2022-11-27T11:50:00;97940.0;;;
68446;BMP280;35789;48.414;12.768;2022-11-27T11:55:13;97940.0;;;
68446;BMP280;35789;48.414;12.768;2022-11-27T12:00:04;97940.0;;;
68446;BMP280;35789;48.414;12.768;2022-11-27T12:05:18;97930.0;;;
68446;BMP280;35789;48.414;12.768;2022-11-27T12:10:13;97940.0;;;
68446;BMP280;35789;48.414;12.768;2022-11-27T12:15:08;97920.0;;;
68446;BMP280;35789;48.414;12.768;2022-11-27T12:20:13;97900.0;;;
68446;BMP280;35789;48.414;12.768;2022-11-27T12:25:21;97900.0;;;
68446;BMP280;35789;48.414;12.768;2022-11-27T12:30:09;97890.0;;;
68446;BMP280;35789;48.414;12.768;2022-11-27T12:35:19;97890.0;;;
68446;BMP280;35789;48.414;12.768;2022-11-27T12:45:07;97890.0;;;
68446;BMP280;35789;48.414;12.768;2022-11-27T12:50:07;97890.0;;;
68446;BMP280;35789;48.414;12.768;2022-11-27T12:55:04;97880.0;;;
68446;BMP280;35789;48.414;12.768;2022-11-27T13:00:13;97880.0;;;
68446;BMP280;35789;48.414;12.768;2022-11-27T13:05:04;97890.0;;;
68446;BMP280;35789;48.414;12.768;2022-11-27T13:10:10;97870.0;;;
68446;BMP280;35789;48.414;12.768;2022-11-27T13:15:07;97870.0;;;
68446;BMP280;35789;48.414;12.768;2022-11-27T13:20:02;97880.0;;;
68446;BMP280;35789;48.414;12.768;2022-11-27T13:25:01;97880.0;;;
68446;BMP280;35789;48.414;12.768;2022-11-27T13:30:04;97870.0;;;
68446;BMP280;35789;48.414;12.768;2022-11-27T13:35:04;97860.0;;;
68446;BMP280;35789;48.414;12.768;2022-11-27T13:40:05;97860.0;;;
68446;BMP280;35789;48.414;12.768;2022-11-27T13:45:05;97850.0;;;
68446;BMP280;35789;48.414;12.768;2022-11-27T13:50:04;97840.0;;;
68446;BMP280;35789;48.414;12.768;2022-11-27T13:55:04;97840.0;;;
68446;BMP280;35789;48.414;12.768;2022-11-27T14:00:05;97830.0;;;
68446;BMP280;35789;48.414;12.768;2022-11-27T14:05:00;97830.0;;;
68446;BMP280;35789;48.414;12.768;2022-11-27T14:10:07;97820.0;;;
68446;BMP280;35789;48.414;12.768;2022-11-27T14:15:06;97810.0;;;
68446;BMP280;35789;48.414;12.768;2022-11-27T14:25:00;97820.0;;;
68446;BMP280;35789;48.414;12.768;2022-11-27T14:30:22;97810.0;;;
68446;BMP280;35789;48.414;12.768;2022-11-27T14:35:00;97810.0;;;
68446;BMP280;35789;48.414;12.768;2022-11-27T14:40:12;97810.0;;;
68446;BMP280;35789;48.414;12.768;2022-11-27T14:45:02;97800.0;;;
68446;BMP280;35789;48.414;12.768;2022-11-27T14:50:00;97800.0;;;
68446;BMP280;35789;48.414;12.768;2022-11-27T14:55:01;97780.0;;;
68446;BMP280;35789;48.414;12.768;2022-11-27T15:00:15;97780.0;;;
68446;BMP280;35789;48.414;12.768;2022-11-27T15:05:03;97780.0;;;
68446;BMP280;35789;48.414;12.768;2022-11-27T15:10:06;97780.0;;;
68446;BMP280;35789;48.414;12.768;2022-11-27T15:15:06;97770.0;;;
68446;BMP280;35789;48.414;12.768;2022-11-27T15:20:10;97780.0;;;
68446;BMP280;35789;48.414;12.768;2022-11-27T15:25:03;97770.0;;;
68446;BMP280;35789;48.414;12.768;2022-11-27T15:30:11;97770.0;;;
68446;BMP280;35789;48.414;12.768;2022-11-27T15:35:13;97770.0;;;
68446;BMP280;35789;48.414;12.768;2022-11-27T15:40:00;97770.0;;;
68446;BMP280;35789;48.414;12.768;2022-11-27T15:45:00;97750.0;;;
68446;BMP280;35789;48.414;12.768;2022-11-27T15:50:01;97740.0;;;
68446;BMP280;35789;48.414;12.768;2022-11-27T15:55:00;97730.0;;;
68446;BMP280;35789;48.414;12.768;2022-11-27T16:00:00;97720.0;;;
68446;BMP280;35789;48.414;12.768;2022-11-27T16:05:00;97730.0;;;
68446;BMP280;35789;48.414;12.768;2022-11-27T16:10:00;97730.0;;;
68446;BMP280;35789;48.414;12.768;2022-11-27T16:15:00;97720.0;;;
68446;BMP280;35789;48.414;12.768;2022-11-27T16:20:00;97710.0;;;
68446;BMP280;35789;48.414;12.768;2022-11-27T16:25:00;97700.0;;;
68446;BMP280;35789;48.414;12.768;2022-11-27T16:30:00;97680.0;;;
68446;BMP280;35789;48.414;12.768;2022-11-27T16:35:00;97680.0;;;
68446;BMP280;35789;48.414;12.768;2022-11-27T16:40:00;97670.0;;;
68446;BMP280;35789;48.414;12.768;2022-11-27T16:45:00;97670.0;;;
68446;BMP280;35789;48.414;12.768;2022-11-27T16:50:00;97670.0;;;
68446;BMP280;35789;48.414;12.768;2022-11-27T16:55:00;97670.0;;;
68446;BMP280;35789;48.414;12.768;2022-11-27T17:00:00;97650.0;;;
68446;BMP280;35789;48.414;12.768;2022-11-27T17:05:00;97660.0;;;
68446;BMP280;35789;48.414;12.768;2022-11-27T17:10:00;97660.0;;;
68446;BMP280;35789;48.414;12.768;2022-11-27T17:15:00;97640.0;;;
68446;BMP280;35789;48.414;12.768;2022-11-27T17:20:00;97640.0;;;
68446;BMP280;35789;48.414;12.768;2022-11-27T17:25:00;97630.0;;;
68446;BMP280;35789;48.414;12.768;2022-11-27T17:30:00;97640.0;;;
68446;BMP280;35789;48.414;12.768;2022-11-27T17:35:00;97630.0;;;
68446;BMP280;35789;48.414;12.768;2022-11-27T17:40:00;97630.0;;;
68446;BMP280;35789;48.414;12.768;2022-11-27T17:45:00;97610.0;;;
68446;BMP280;35789;48.414;12.768;2022-11-27T17:50:00;97590.0;;;
68446;BMP280;35789;48.414;12.768;2022-11-27T17:55:00;97590.0;;;
68446;BMP280;35789;48.414;12.768;2022-11-27T18:00:00;97580.0;;;
68446;BMP280;35789;48.414;12.768;2022-11-27T18:05:00;97570.0;;;
68446;BMP280;35789;48.414;12.768;2022-11-27T18:10:00;97560.0;;;
68446;BMP280;35789;48.414;12.768;2022-11-27T18:15:00;97540.0;;;
68446;BMP280;35789;48.414;12.768;2022-11-27T18:20:00;97540.0;;;
68446;BMP280;35789;48.414;12.768;2022-11-27T18:25:00;97530.0;;;
68446;BMP280;35789;48.414;12.768;2022-11-27T18:30:01;97540.0;;;
68446;BMP280;35789;48.414;12.768;2022-11-27T18:35:00;97540.0;;;
68446;BMP280;35789;48.414;12.768;2022-11-27T18:40:00;97530.0;;;
68446;BMP280;35789;48.414;12.768;2022-11-27T18:45:00;97520.0;;;
68446;BMP280;35789;48.414;12.768;2022-11-27T18:50:02;97500.0;;;
68446;BMP280;35789;48.414;12.768;2022-11-27T18:55:00;97500.0;;;
68446;BMP280;35789;48.414;12.768;2022-11-27T19:00:00;97490.0;;;
68446;BMP280;35789;48.414;12.768;2022-11-27T19:05:00;97490.0;;;
68446;BMP280;35789;48.414;12.768;2022-11-27T19:10:00;97490.0;;;
68446;BMP280;35789;48.414;12.768;2022-11-27T19:15:00;97490.0;;;
68446;BMP280;35789;48.414;12.768;2022-11-27T19:20:00;97480.0;;;
68446;BMP280;35789;48.414;12.768;2022-11-27T19:25:00;97490.0;;;
68446;BMP280;35789;48.414;12.768;2022-11-27T19:30:00;97490.0;;;
68446;BMP280;35789;48.414;12.768;2022-11-27T19:35:00;97480.0;;;
68446;BMP280;35789;48.414;12.768;2022-11-27T19:40:00;97470.0;;;
68446;BMP280;35789;48.414;12.768;2022-11-27T19:45:00;97470.0;;;
68446;BMP280;35789;48.414;12.768;2022-11-27T19:50:00;97480.0;;;
68446;BMP280;35789;48.414;12.768;2022-11-27T19:55:00;97460.0;;;
68446;BMP280;35789;48.414;12.768;2022-11-27T20:00:00;97460.0;;;
68446;BMP280;35789;48.414;12.768;2022-11-27T20:05:00;97450.0;;;
68446;BMP280;35789;48.414;12.768;2022-11-27T20:10:00;97450.0;;;
68446;BMP280;35789;48.414;12.768;2022-11-27T20:15:00;97440.0;;;
68446;BMP280;35789;48.414;12.768;2022-11-27T20:20:00;97440.0;;;
68446;BMP280;35789;48.414;12.768;2022-11-27T20:25:00;97430.0;;;
68446;BMP280;35789;48.414;12.768;2022-11-27T20:30:00;97430.0;;;
68446;BMP280;35789;48.414;12.768;2022-11-27T20:35:00;97430.0;;;
68446;BMP280;35789;48.414;12.768;2022-11-27T20:40:00;97410.0;;;
68446;BMP280;35789;48.414;12.768;2022-11-27T20:45:00;97420.0;;;
68446;BMP280;35789;48.414;12.768;2022-11-27T20:50:00;97410.0;;;
68446;BMP280;35789;48.414;12.768;2022-11-27T20:55:00;97390.0;;;
68446;BMP280;35789;48.414;12.768;2022-11-27T21:00:00;97390.0;;;
68446;BMP280;35789;48.414;12.768;2022-11-27T21:05:00;97380.0;;;
68446;BMP280;35789;48.414;12.768;2022-11-27T21:10:00;97380.0;;;
68446;BMP280;35789;48.414;12.768;2022-11-27T21:15:00;97370.0;;;
68446;BMP280;35789;48.414;12.768;2022-11-27T21:20:00;97360.0;;;
68446;BMP280;35789;48.414;12.768;2022-11-27T21:25:00;97340.0;;;
68446;BMP280;35789;48.414;12.768;2022-11-27T21:30:00;97330.0;;;
68446;BMP280;35789;48.414;12.768;2022-11-27T21:35:00;97320.0;;;
68446;BMP280;35789;48.414;12.768;2022-11-27T21:40:00;97320.0;;;
68446;BMP280;35789;48.414;12.768;2022-11-27T21:45:00;97310.0;;;
68446;BMP280;35789;48.414;12.768;2022-11-27T21:50:00;97310.0;;;
68446;BMP280;35789;48.414;12.768;2022-11-27T21:55:00;97310.0;;;
68446;BMP280;35789;48.414;12.768;2022-11-27T22:00:00;97310.0;;;
68446;BMP280;35789;48.414;12.768;2022-11-27T22:05:00;97300.0;;;
68446;BMP280;35789;48.414;12.768;2022-11-27T22:10:00;97290.0;;;
68446;BMP280;35789;48.414;12.768;2022-11-27T22:15:00;97290.0;;;
68446;BMP280;35789;48.414;12.768;2022-11-27T22:20:00;97280.0;;;
68446;BMP280;35789;48.414;12.768;2022-11-27T22:25:00;97260.0;;;
68446;BMP280;35789;48.414;12.768;2022-11-27T22:30:00;97250.0;;;
68446;BMP280;35789;48.414;12.768;2022-11-27T22:35:00;97240.0;;;
68446;BMP280;35789;48.414;12.768;2022-11-27T22:40:00;97250.0;;;
68446;BMP280;35789;48.414;12.768;2022-11-27T22:45:00;97230.0;;;
68446;BMP280;35789;48.414;12.768;2022-11-27T22:50:00;97230.0;;;
68446;BMP280;35789;48.414;12.768;2022-11-27T22:55:00;97220.0;;;
68446;BMP280;35789;48.414;12.768;2022-11-27T23:00:00;97230.0;;;
68446;BMP280;35789;48.414;12.768;2022-11-27T23:05:00;97220.0;;;
68446;BMP280;35789;48.414;12.768;2022-11-27T23:10:00;97230.0;;;
68446;BMP280;35789;48.414;12.768;2022-11-27T23:15:00;97230.0;;;
68446;BMP280;35789;48.414;12.768;2022-11-27T23:20:00;97220.0;;;
68446;BMP280;35789;48.414;12.768;2022-11-27T23:25:00;97220.0;;;
68446;BMP280;35789;48.414;12.768;2022-11-27T23:30:00;97200.0;;;
68446;BMP280;35789;48.414;12.768;2022-11-27T23:35:00;97190.0;;;
68446;BMP280;35789;48.414;12.768;2022-11-27T23:40:00;97190.0;;;
68446;BMP280;35789;48.414;12.768;2022-11-27T23:45:00;97180.0;;;
68446;BMP280;35789;48.414;12.768;2022-11-27T23:50:00;97180.0;;;
68446;BMP280;35789;48.414;12.768;2022-11-27T23:55:00;97170.0;;;
